sensor_id;sensor_type;location;lat;lon;timestamp;P1;durP1;ratioP1;P2;durP2;ratioP2
70320;SDS011;61127;55.826;37.046;2023-04-25T00:01:46;16.25;;;6.53;;
70320;SDS011;61127;55.826;37.046;2023-04-25T00:04:12;16.17;;;7.22;;
70320;SDS011;61127;55.826;37.046;2023-04-25T00:06:38;16.42;;;6.40;;
70320;SDS011;61127;55.826;37.046;2023-04-25T00:09:05;13.93;;;6.05;;
70320;SDS011;61127;55.826;37.046;2023-04-25T00:11:35;16.17;;;6.40;;
70320;SDS011;61127;55.826;37.046;2023-04-25T00:14:02;12.20;;;6.00;;
70320;SDS011;61127;55.826;37.046;2023-04-25T00:16:29;12.60;;;5.63;;
70320;SDS011;61127;55.826;37.046;2023-04-25T00:18:58;13.13;;;5.57;;
70320;SDS011;61127;55.826;37.046;2023-04-25T00:21:24;13.27;;;5.95;;
70320;SDS011;61127;55.826;37.046;2023-04-25T00:23:52;11.27;;;5.50;;
70320;SDS011;61127;55.826;37.046;2023-04-25T00:26:18;15.68;;;6.03;;
70320;SDS011;61127;55.826;37.046;2023-04-25T00:28:46;20.23;;;6.57;;
70320;SDS011;61127;55.826;37.046;2023-04-25T00:31:13;16.95;;;5.88;;
70320;SDS011;61127;55.826;37.046;2023-04-25T00:33:40;13.70;;;6.28;;
70320;SDS011;61127;55.826;37.046;2023-04-25T00:36:06;11.47;;;5.63;;
70320;SDS011;61127;55.826;37.046;2023-04-25T00:38:33;17.20;;;5.97;;
70320;SDS011;61127;55.826;37.046;2023-04-25T00:40:59;13.95;;;6.28;;
70320;SDS011;61127;55.826;37.046;2023-04-25T00:43:26;13.23;;;5.70;;
70320;SDS011;61127;55.826;37.046;2023-04-25T00:45:52;13.82;;;5.60;;
70320;SDS011;61127;55.826;37.046;2023-04-25T00:48:21;13.40;;;6.07;;
70320;SDS011;61127;55.826;37.046;2023-04-25T00:50:51;13.48;;;6.18;;
70320;SDS011;61127;55.826;37.046;2023-04-25T00:53:20;13.23;;;6.45;;
70320;SDS011;61127;55.826;37.046;2023-04-25T00:55:50;15.68;;;6.50;;
70320;SDS011;61127;55.826;37.046;2023-04-25T00:58:17;15.17;;;6.37;;
70320;SDS011;61127;55.826;37.046;2023-04-25T01:00:44;15.40;;;6.65;;
70320;SDS011;61127;55.826;37.046;2023-04-25T01:03:12;19.50;;;6.95;;
70320;SDS011;61127;55.826;37.046;2023-04-25T01:05:41;16.35;;;6.45;;
70320;SDS011;61127;55.826;37.046;2023-04-25T01:08:08;16.15;;;6.45;;
70320;SDS011;61127;55.826;37.046;2023-04-25T01:10:35;15.57;;;6.17;;
70320;SDS011;61127;55.826;37.046;2023-04-25T01:13:01;15.77;;;6.82;;
70320;SDS011;61127;55.826;37.046;2023-04-25T01:15:27;15.85;;;6.28;;
70320;SDS011;61127;55.826;37.046;2023-04-25T01:17:53;14.50;;;6.65;;
70320;SDS011;61127;55.826;37.046;2023-04-25T01:20:21;14.65;;;7.07;;
70320;SDS011;61127;55.826;37.046;2023-04-25T01:22:48;16.80;;;6.97;;
70320;SDS011;61127;55.826;37.046;2023-04-25T01:25:15;16.30;;;6.75;;
70320;SDS011;61127;55.826;37.046;2023-04-25T01:27:43;16.15;;;7.00;;
70320;SDS011;61127;55.826;37.046;2023-04-25T01:30:09;16.45;;;6.70;;
70320;SDS011;61127;55.826;37.046;2023-04-25T01:32:36;14.48;;;6.88;;
70320;SDS011;61127;55.826;37.046;2023-04-25T01:35:06;12.07;;;6.03;;
70320;SDS011;61127;55.826;37.046;2023-04-25T01:40:09;13.95;;;6.90;;
70320;SDS011;61127;55.826;37.046;2023-04-25T01:42:36;17.08;;;7.20;;
70320;SDS011;61127;55.826;37.046;2023-04-25T01:45:07;15.30;;;7.32;;
70320;SDS011;61127;55.826;37.046;2023-04-25T01:47:34;16.93;;;7.17;;
70320;SDS011;61127;55.826;37.046;2023-04-25T01:50:04;20.70;;;7.40;;
70320;SDS011;61127;55.826;37.046;2023-04-25T01:52:31;17.38;;;7.05;;
70320;SDS011;61127;55.826;37.046;2023-04-25T01:54:58;20.17;;;7.95;;
70320;SDS011;61127;55.826;37.046;2023-04-25T01:57:30;23.00;;;8.40;;
70320;SDS011;61127;55.826;37.046;2023-04-25T02:00:04;21.73;;;7.93;;
70320;SDS011;61127;55.826;37.046;2023-04-25T02:02:38;21.15;;;8.70;;
70320;SDS011;61127;55.826;37.046;2023-04-25T02:05:07;22.30;;;8.23;;
70320;SDS011;61127;55.826;37.046;2023-04-25T02:07:36;18.58;;;8.55;;
70320;SDS011;61127;55.826;37.046;2023-04-25T02:10:03;17.02;;;7.93;;
70320;SDS011;61127;55.826;37.046;2023-04-25T02:12:33;23.50;;;8.63;;
70320;SDS011;61127;55.826;37.046;2023-04-25T02:15:19;19.42;;;8.43;;
70320;SDS011;61127;55.826;37.046;2023-04-25T02:18:15;18.45;;;8.50;;
70320;SDS011;61127;55.826;37.046;2023-04-25T02:20:43;21.40;;;7.95;;
70320;SDS011;61127;55.826;37.046;2023-04-25T02:23:10;14.52;;;7.15;;
70320;SDS011;61127;55.826;37.046;2023-04-25T02:25:36;17.53;;;7.90;;
70320;SDS011;61127;55.826;37.046;2023-04-25T02:28:02;16.33;;;7.05;;
70320;SDS011;61127;55.826;37.046;2023-04-25T02:30:28;14.05;;;7.15;;
70320;SDS011;61127;55.826;37.046;2023-04-25T02:32:55;16.60;;;7.28;;
70320;SDS011;61127;55.826;37.046;2023-04-25T02:35:22;17.27;;;6.80;;
70320;SDS011;61127;55.826;37.046;2023-04-25T02:37:47;11.75;;;6.20;;
70320;SDS011;61127;55.826;37.046;2023-04-25T02:40:13;13.18;;;6.28;;
70320;SDS011;61127;55.826;37.046;2023-04-25T02:42:40;13.43;;;6.45;;
70320;SDS011;61127;55.826;37.046;2023-04-25T02:45:05;13.10;;;6.77;;
70320;SDS011;61127;55.826;37.046;2023-04-25T02:47:32;12.23;;;6.35;;
70320;SDS011;61127;55.826;37.046;2023-04-25T02:49:58;13.85;;;6.32;;
70320;SDS011;61127;55.826;37.046;2023-04-25T02:52:24;17.70;;;6.23;;
70320;SDS011;61127;55.826;37.046;2023-04-25T02:54:58;13.70;;;6.63;;
70320;SDS011;61127;55.826;37.046;2023-04-25T02:57:26;11.38;;;5.70;;
70320;SDS011;61127;55.826;37.046;2023-04-25T02:59:52;14.40;;;6.25;;
70320;SDS011;61127;55.826;37.046;2023-04-25T03:02:17;13.93;;;6.43;;
70320;SDS011;61127;55.826;37.046;2023-04-25T03:04:43;13.02;;;6.60;;
70320;SDS011;61127;55.826;37.046;2023-04-25T03:07:09;14.48;;;6.55;;
70320;SDS011;61127;55.826;37.046;2023-04-25T03:09:35;17.00;;;7.37;;
70320;SDS011;61127;55.826;37.046;2023-04-25T03:12:01;19.58;;;7.40;;
70320;SDS011;61127;55.826;37.046;2023-04-25T03:14:27;16.75;;;7.00;;
70320;SDS011;61127;55.826;37.046;2023-04-25T03:16:54;18.55;;;7.57;;
70320;SDS011;61127;55.826;37.046;2023-04-25T03:19:19;17.07;;;7.03;;
70320;SDS011;61127;55.826;37.046;2023-04-25T03:21:47;15.23;;;7.43;;
70320;SDS011;61127;55.826;37.046;2023-04-25T03:24:12;19.27;;;7.65;;
70320;SDS011;61127;55.826;37.046;2023-04-25T03:26:38;17.57;;;7.47;;
70320;SDS011;61127;55.826;37.046;2023-04-25T03:29:04;16.35;;;7.47;;
70320;SDS011;61127;55.826;37.046;2023-04-25T03:31:30;24.20;;;7.28;;
70320;SDS011;61127;55.826;37.046;2023-04-25T03:33:56;16.50;;;7.57;;
70320;SDS011;61127;55.826;37.046;2023-04-25T03:36:23;14.60;;;6.25;;
70320;SDS011;61127;55.826;37.046;2023-04-25T03:38:49;18.20;;;7.10;;
70320;SDS011;61127;55.826;37.046;2023-04-25T03:41:16;12.75;;;6.15;;
70320;SDS011;61127;55.826;37.046;2023-04-25T03:43:46;16.67;;;6.85;;
70320;SDS011;61127;55.826;37.046;2023-04-25T03:46:13;12.75;;;6.57;;
70320;SDS011;61127;55.826;37.046;2023-04-25T03:48:40;15.43;;;6.97;;
70320;SDS011;61127;55.826;37.046;2023-04-25T03:51:08;10.70;;;6.47;;
70320;SDS011;61127;55.826;37.046;2023-04-25T03:53:37;15.48;;;6.97;;
70320;SDS011;61127;55.826;37.046;2023-04-25T03:56:18;14.82;;;7.05;;
70320;SDS011;61127;55.826;37.046;2023-04-25T03:58:48;12.13;;;6.55;;
70320;SDS011;61127;55.826;37.046;2023-04-25T04:01:17;14.10;;;6.63;;
70320;SDS011;61127;55.826;37.046;2023-04-25T04:03:43;11.57;;;6.75;;
70320;SDS011;61127;55.826;37.046;2023-04-25T04:06:09;20.67;;;7.60;;
70320;SDS011;61127;55.826;37.046;2023-04-25T04:08:39;16.98;;;6.18;;
70320;SDS011;61127;55.826;37.046;2023-04-25T04:11:06;14.52;;;6.82;;
70320;SDS011;61127;55.826;37.046;2023-04-25T04:13:32;17.30;;;8.23;;
70320;SDS011;61127;55.826;37.046;2023-04-25T04:15:59;15.75;;;5.53;;
70320;SDS011;61127;55.826;37.046;2023-04-25T04:18:25;13.90;;;6.30;;
70320;SDS011;61127;55.826;37.046;2023-04-25T04:20:52;11.93;;;5.78;;
70320;SDS011;61127;55.826;37.046;2023-04-25T04:23:19;16.25;;;7.88;;
70320;SDS011;61127;55.826;37.046;2023-04-25T04:25:46;17.47;;;7.20;;
70320;SDS011;61127;55.826;37.046;2023-04-25T04:28:31;15.43;;;7.78;;
70320;SDS011;61127;55.826;37.046;2023-04-25T04:31:20;15.65;;;7.78;;
70320;SDS011;61127;55.826;37.046;2023-04-25T04:33:47;16.83;;;7.63;;
70320;SDS011;61127;55.826;37.046;2023-04-25T04:36:14;17.67;;;7.13;;
70320;SDS011;61127;55.826;37.046;2023-04-25T04:38:41;14.43;;;5.90;;
70320;SDS011;61127;55.826;37.046;2023-04-25T04:41:11;16.35;;;5.80;;
70320;SDS011;61127;55.826;37.046;2023-04-25T04:43:57;10.98;;;5.25;;
70320;SDS011;61127;55.826;37.046;2023-04-25T04:46:38;13.55;;;5.88;;
70320;SDS011;61127;55.826;37.046;2023-04-25T04:49:15;8.23;;;4.80;;
70320;SDS011;61127;55.826;37.046;2023-04-25T04:52:01;11.10;;;4.60;;
70320;SDS011;61127;55.826;37.046;2023-04-25T04:54:34;12.05;;;5.25;;
70320;SDS011;61127;55.826;37.046;2023-04-25T04:57:14;14.02;;;4.70;;
70320;SDS011;61127;55.826;37.046;2023-04-25T05:00:11;11.73;;;4.57;;
70320;SDS011;61127;55.826;37.046;2023-04-25T05:03:07;9.88;;;4.30;;
70320;SDS011;61127;55.826;37.046;2023-04-25T05:06:00;11.60;;;4.60;;
70320;SDS011;61127;55.826;37.046;2023-04-25T05:08:36;9.68;;;4.28;;
70320;SDS011;61127;55.826;37.046;2023-04-25T05:11:23;8.82;;;4.10;;
70320;SDS011;61127;55.826;37.046;2023-04-25T05:14:10;9.38;;;4.38;;
70320;SDS011;61127;55.826;37.046;2023-04-25T05:16:43;13.25;;;4.72;;
70320;SDS011;61127;55.826;37.046;2023-04-25T05:19:19;11.73;;;4.33;;
70320;SDS011;61127;55.826;37.046;2023-04-25T05:21:58;10.18;;;4.68;;
70320;SDS011;61127;55.826;37.046;2023-04-25T05:24:33;9.52;;;4.88;;
70320;SDS011;61127;55.826;37.046;2023-04-25T05:26:59;10.43;;;4.90;;
70320;SDS011;61127;55.826;37.046;2023-04-25T05:29:55;8.65;;;4.47;;
70320;SDS011;61127;55.826;37.046;2023-04-25T05:32:25;11.83;;;4.73;;
70320;SDS011;61127;55.826;37.046;2023-04-25T05:34:51;13.60;;;4.47;;
70320;SDS011;61127;55.826;37.046;2023-04-25T05:37:29;12.85;;;4.57;;
70320;SDS011;61127;55.826;37.046;2023-04-25T05:40:10;11.85;;;4.95;;
70320;SDS011;61127;55.826;37.046;2023-04-25T05:43:08;14.38;;;5.45;;
70320;SDS011;61127;55.826;37.046;2023-04-25T05:45:54;12.57;;;4.57;;
70320;SDS011;61127;55.826;37.046;2023-04-25T05:48:40;11.15;;;4.72;;
70320;SDS011;61127;55.826;37.046;2023-04-25T05:51:35;10.35;;;4.82;;
70320;SDS011;61127;55.826;37.046;2023-04-25T05:54:24;11.95;;;4.60;;
70320;SDS011;61127;55.826;37.046;2023-04-25T05:56:52;9.50;;;4.72;;
70320;SDS011;61127;55.826;37.046;2023-04-25T05:59:18;11.73;;;4.60;;
70320;SDS011;61127;55.826;37.046;2023-04-25T06:01:45;10.02;;;4.40;;
70320;SDS011;61127;55.826;37.046;2023-04-25T06:04:12;12.63;;;4.90;;
70320;SDS011;61127;55.826;37.046;2023-04-25T06:06:38;9.85;;;4.65;;
70320;SDS011;61127;55.826;37.046;2023-04-25T06:09:04;13.50;;;4.65;;
70320;SDS011;61127;55.826;37.046;2023-04-25T06:11:30;11.10;;;4.60;;
70320;SDS011;61127;55.826;37.046;2023-04-25T06:13:57;12.55;;;4.57;;
70320;SDS011;61127;55.826;37.046;2023-04-25T06:16:24;10.02;;;4.65;;
70320;SDS011;61127;55.826;37.046;2023-04-25T06:18:51;11.30;;;4.47;;
70320;SDS011;61127;55.826;37.046;2023-04-25T06:21:17;11.02;;;5.00;;
70320;SDS011;61127;55.826;37.046;2023-04-25T06:23:43;12.80;;;4.60;;
70320;SDS011;61127;55.826;37.046;2023-04-25T06:26:11;12.82;;;4.30;;
70320;SDS011;61127;55.826;37.046;2023-04-25T06:28:41;9.40;;;4.50;;
70320;SDS011;61127;55.826;37.046;2023-04-25T06:31:07;11.63;;;4.47;;
70320;SDS011;61127;55.826;37.046;2023-04-25T06:33:33;10.03;;;3.80;;
70320;SDS011;61127;55.826;37.046;2023-04-25T06:36:01;5.65;;;3.55;;
70320;SDS011;61127;55.826;37.046;2023-04-25T06:38:28;15.77;;;3.83;;
70320;SDS011;61127;55.826;37.046;2023-04-25T06:40:56;11.38;;;3.42;;
70320;SDS011;61127;55.826;37.046;2023-04-25T06:43:22;6.43;;;3.30;;
70320;SDS011;61127;55.826;37.046;2023-04-25T06:46:06;8.95;;;3.65;;
70320;SDS011;61127;55.826;37.046;2023-04-25T06:48:40;9.10;;;3.20;;
70320;SDS011;61127;55.826;37.046;2023-04-25T06:51:05;8.73;;;3.63;;
70320;SDS011;61127;55.826;37.046;2023-04-25T06:53:33;12.73;;;4.30;;
70320;SDS011;61127;55.826;37.046;2023-04-25T06:56:01;9.15;;;4.40;;
70320;SDS011;61127;55.826;37.046;2023-04-25T06:58:45;9.10;;;4.43;;
70320;SDS011;61127;55.826;37.046;2023-04-25T07:01:16;12.73;;;4.40;;
70320;SDS011;61127;55.826;37.046;2023-04-25T07:03:42;10.85;;;4.53;;
70320;SDS011;61127;55.826;37.046;2023-04-25T07:06:14;13.03;;;4.17;;
70320;SDS011;61127;55.826;37.046;2023-04-25T07:08:40;9.60;;;4.50;;
70320;SDS011;61127;55.826;37.046;2023-04-25T07:11:06;11.27;;;4.13;;
70320;SDS011;61127;55.826;37.046;2023-04-25T07:13:32;8.65;;;4.20;;
70320;SDS011;61127;55.826;37.046;2023-04-25T07:15:58;11.27;;;4.43;;
70320;SDS011;61127;55.826;37.046;2023-04-25T07:18:27;7.05;;;3.33;;
70320;SDS011;61127;55.826;37.046;2023-04-25T07:20:53;14.00;;;4.35;;
70320;SDS011;61127;55.826;37.046;2023-04-25T07:23:19;10.13;;;4.05;;
70320;SDS011;61127;55.826;37.046;2023-04-25T07:25:46;11.02;;;3.67;;
70320;SDS011;61127;55.826;37.046;2023-04-25T07:28:15;9.60;;;3.87;;
70320;SDS011;61127;55.826;37.046;2023-04-25T07:30:41;6.18;;;3.58;;
70320;SDS011;61127;55.826;37.046;2023-04-25T07:33:07;8.95;;;4.10;;
70320;SDS011;61127;55.826;37.046;2023-04-25T07:35:33;6.97;;;4.13;;
70320;SDS011;61127;55.826;37.046;2023-04-25T07:37:59;7.50;;;4.03;;
70320;SDS011;61127;55.826;37.046;2023-04-25T07:40:24;11.27;;;4.22;;
70320;SDS011;61127;55.826;37.046;2023-04-25T07:42:55;10.50;;;3.95;;
70320;SDS011;61127;55.826;37.046;2023-04-25T07:45:29;11.65;;;4.53;;
70320;SDS011;61127;55.826;37.046;2023-04-25T07:47:55;7.87;;;4.23;;
70320;SDS011;61127;55.826;37.046;2023-04-25T07:50:21;11.32;;;3.95;;
70320;SDS011;61127;55.826;37.046;2023-04-25T07:52:47;11.10;;;3.63;;
70320;SDS011;61127;55.826;37.046;2023-04-25T07:55:22;10.40;;;4.00;;
70320;SDS011;61127;55.826;37.046;2023-04-25T07:58:07;8.77;;;4.00;;
70320;SDS011;61127;55.826;37.046;2023-04-25T08:00:36;9.60;;;3.85;;
70320;SDS011;61127;55.826;37.046;2023-04-25T08:03:28;8.48;;;3.50;;
70320;SDS011;61127;55.826;37.046;2023-04-25T08:05:56;7.38;;;3.88;;
70320;SDS011;61127;55.826;37.046;2023-04-25T08:08:24;6.80;;;3.30;;
70320;SDS011;61127;55.826;37.046;2023-04-25T08:10:51;8.17;;;3.40;;
70320;SDS011;61127;55.826;37.046;2023-04-25T08:13:17;8.02;;;3.38;;
70320;SDS011;61127;55.826;37.046;2023-04-25T08:15:44;10.35;;;3.28;;
70320;SDS011;61127;55.826;37.046;2023-04-25T08:18:10;5.80;;;3.60;;
70320;SDS011;61127;55.826;37.046;2023-04-25T08:20:36;8.97;;;3.67;;
70320;SDS011;61127;55.826;37.046;2023-04-25T08:23:05;6.68;;;3.58;;
70320;SDS011;61127;55.826;37.046;2023-04-25T08:25:47;8.02;;;3.65;;
70320;SDS011;61127;55.826;37.046;2023-04-25T08:28:16;7.78;;;3.80;;
70320;SDS011;61127;55.826;37.046;2023-04-25T08:30:43;7.22;;;3.95;;
70320;SDS011;61127;55.826;37.046;2023-04-25T08:33:12;8.00;;;3.80;;
70320;SDS011;61127;55.826;37.046;2023-04-25T08:36:01;8.07;;;4.78;;
70320;SDS011;61127;55.826;37.046;2023-04-25T08:38:28;12.27;;;4.50;;
70320;SDS011;61127;55.826;37.046;2023-04-25T08:40:54;8.00;;;4.32;;
70320;SDS011;61127;55.826;37.046;2023-04-25T08:43:22;8.23;;;4.60;;
70320;SDS011;61127;55.826;37.046;2023-04-25T08:45:49;10.35;;;4.63;;
70320;SDS011;61127;55.826;37.046;2023-04-25T08:48:26;14.82;;;4.50;;
70320;SDS011;61127;55.826;37.046;2023-04-25T08:50:55;11.60;;;4.70;;
70320;SDS011;61127;55.826;37.046;2023-04-25T08:53:25;11.07;;;4.53;;
70320;SDS011;61127;55.826;37.046;2023-04-25T08:55:53;13.17;;;4.37;;
70320;SDS011;61127;55.826;37.046;2023-04-25T08:58:21;12.68;;;4.47;;
70320;SDS011;61127;55.826;37.046;2023-04-25T09:00:48;9.32;;;4.38;;
70320;SDS011;61127;55.826;37.046;2023-04-25T09:03:19;11.32;;;4.30;;
70320;SDS011;61127;55.826;37.046;2023-04-25T09:05:47;12.00;;;4.60;;
70320;SDS011;61127;55.826;37.046;2023-04-25T09:08:14;9.47;;;4.00;;
70320;SDS011;61127;55.826;37.046;2023-04-25T09:10:41;11.40;;;4.07;;
70320;SDS011;61127;55.826;37.046;2023-04-25T09:13:10;11.90;;;4.55;;
70320;SDS011;61127;55.826;37.046;2023-04-25T09:16:00;13.65;;;4.90;;
70320;SDS011;61127;55.826;37.046;2023-04-25T09:18:52;18.00;;;4.60;;
70320;SDS011;61127;55.826;37.046;2023-04-25T09:21:22;17.93;;;5.00;;
70320;SDS011;61127;55.826;37.046;2023-04-25T09:23:49;11.95;;;4.53;;
70320;SDS011;61127;55.826;37.046;2023-04-25T09:26:18;12.27;;;4.57;;
70320;SDS011;61127;55.826;37.046;2023-04-25T09:28:46;12.93;;;4.55;;
70320;SDS011;61127;55.826;37.046;2023-04-25T09:31:22;11.50;;;5.00;;
70320;SDS011;61127;55.826;37.046;2023-04-25T09:33:58;12.43;;;4.77;;
70320;SDS011;61127;55.826;37.046;2023-04-25T09:36:29;13.90;;;5.03;;
70320;SDS011;61127;55.826;37.046;2023-04-25T09:39:15;15.93;;;4.85;;
70320;SDS011;61127;55.826;37.046;2023-04-25T09:41:47;13.10;;;5.00;;
70320;SDS011;61127;55.826;37.046;2023-04-25T09:44:23;17.02;;;5.38;;
70320;SDS011;61127;55.826;37.046;2023-04-25T09:46:50;15.93;;;5.37;;
70320;SDS011;61127;55.826;37.046;2023-04-25T09:49:20;11.35;;;5.18;;
70320;SDS011;61127;55.826;37.046;2023-04-25T09:52:09;13.15;;;4.40;;
70320;SDS011;61127;55.826;37.046;2023-04-25T09:54:58;17.60;;;4.90;;
70320;SDS011;61127;55.826;37.046;2023-04-25T09:57:31;12.07;;;4.63;;
70320;SDS011;61127;55.826;37.046;2023-04-25T09:59:57;9.93;;;4.30;;
70320;SDS011;61127;55.826;37.046;2023-04-25T10:02:32;11.32;;;4.53;;
70320;SDS011;61127;55.826;37.046;2023-04-25T10:05:05;11.55;;;4.60;;
70320;SDS011;61127;55.826;37.046;2023-04-25T10:07:41;10.73;;;4.60;;
70320;SDS011;61127;55.826;37.046;2023-04-25T10:10:12;10.40;;;4.65;;
70320;SDS011;61127;55.826;37.046;2023-04-25T10:12:38;13.07;;;5.07;;
70320;SDS011;61127;55.826;37.046;2023-04-25T10:15:06;15.35;;;4.55;;
70320;SDS011;61127;55.826;37.046;2023-04-25T10:17:34;12.20;;;3.90;;
70320;SDS011;61127;55.826;37.046;2023-04-25T10:20:04;15.13;;;4.10;;
70320;SDS011;61127;55.826;37.046;2023-04-25T10:22:37;11.15;;;3.40;;
70320;SDS011;61127;55.826;37.046;2023-04-25T10:25:25;15.40;;;3.93;;
70320;SDS011;61127;55.826;37.046;2023-04-25T10:27:51;13.35;;;4.00;;
70320;SDS011;61127;55.826;37.046;2023-04-25T10:30:18;12.70;;;4.35;;
70320;SDS011;61127;55.826;37.046;2023-04-25T10:32:44;12.80;;;3.90;;
70320;SDS011;61127;55.826;37.046;2023-04-25T10:37:59;9.68;;;3.80;;
70320;SDS011;61127;55.826;37.046;2023-04-25T10:40:28;9.93;;;3.60;;
70320;SDS011;61127;55.826;37.046;2023-04-25T10:42:55;6.30;;;3.20;;
70320;SDS011;61127;55.826;37.046;2023-04-25T10:45:21;7.45;;;3.63;;
70320;SDS011;61127;55.826;37.046;2023-04-25T10:47:47;10.47;;;3.37;;
70320;SDS011;61127;55.826;37.046;2023-04-25T10:50:16;6.90;;;3.60;;
70320;SDS011;61127;55.826;37.046;2023-04-25T10:52:42;13.45;;;4.00;;
70320;SDS011;61127;55.826;37.046;2023-04-25T10:55:09;10.43;;;3.47;;
70320;SDS011;61127;55.826;37.046;2023-04-25T10:57:39;4.70;;;3.20;;
70320;SDS011;61127;55.826;37.046;2023-04-25T11:00:13;9.50;;;3.10;;
70320;SDS011;61127;55.826;37.046;2023-04-25T11:02:46;10.27;;;2.70;;
70320;SDS011;61127;55.826;37.046;2023-04-25T11:05:19;5.93;;;3.03;;
70320;SDS011;61127;55.826;37.046;2023-04-25T11:07:55;11.63;;;2.90;;
70320;SDS011;61127;55.826;37.046;2023-04-25T11:10:28;7.07;;;2.80;;
70320;SDS011;61127;55.826;37.046;2023-04-25T11:12:55;6.50;;;2.90;;
70320;SDS011;61127;55.826;37.046;2023-04-25T11:15:22;4.85;;;2.55;;
70320;SDS011;61127;55.826;37.046;2023-04-25T11:17:50;6.50;;;2.65;;
70320;SDS011;61127;55.826;37.046;2023-04-25T11:20:17;6.70;;;2.80;;
70320;SDS011;61127;55.826;37.046;2023-04-25T11:22:44;4.70;;;3.07;;
70320;SDS011;61127;55.826;37.046;2023-04-25T11:25:11;6.75;;;2.80;;
70320;SDS011;61127;55.826;37.046;2023-04-25T11:28:00;11.13;;;3.25;;
70320;SDS011;61127;55.826;37.046;2023-04-25T11:30:27;8.93;;;3.30;;
70320;SDS011;61127;55.826;37.046;2023-04-25T11:32:54;7.70;;;3.65;;
70320;SDS011;61127;55.826;37.046;2023-04-25T11:35:20;6.90;;;3.37;;
70320;SDS011;61127;55.826;37.046;2023-04-25T11:37:48;9.10;;;3.95;;
70320;SDS011;61127;55.826;37.046;2023-04-25T11:40:15;6.45;;;3.47;;
70320;SDS011;61127;55.826;37.046;2023-04-25T11:42:45;9.95;;;3.60;;
70320;SDS011;61127;55.826;37.046;2023-04-25T11:45:12;10.35;;;3.47;;
70320;SDS011;61127;55.826;37.046;2023-04-25T11:47:39;10.93;;;3.30;;
70320;SDS011;61127;55.826;37.046;2023-04-25T11:50:06;10.43;;;3.70;;
70320;SDS011;61127;55.826;37.046;2023-04-25T11:52:40;5.43;;;3.33;;
70320;SDS011;61127;55.826;37.046;2023-04-25T11:55:08;9.18;;;3.13;;
70320;SDS011;61127;55.826;37.046;2023-04-25T11:57:37;7.70;;;2.83;;
70320;SDS011;61127;55.826;37.046;2023-04-25T12:00:05;6.70;;;2.83;;
70320;SDS011;61127;55.826;37.046;2023-04-25T12:02:44;5.30;;;3.25;;
70320;SDS011;61127;55.826;37.046;2023-04-25T12:05:12;7.72;;;3.00;;
70320;SDS011;61127;55.826;37.046;2023-04-25T12:07:39;5.65;;;3.10;;
70320;SDS011;61127;55.826;37.046;2023-04-25T12:10:07;5.57;;;3.10;;
70320;SDS011;61127;55.826;37.046;2023-04-25T12:12:36;6.63;;;3.10;;
70320;SDS011;61127;55.826;37.046;2023-04-25T12:15:12;9.23;;;3.45;;
70320;SDS011;61127;55.826;37.046;2023-04-25T12:17:41;11.23;;;3.33;;
70320;SDS011;61127;55.826;37.046;2023-04-25T12:20:14;5.90;;;3.10;;
70320;SDS011;61127;55.826;37.046;2023-04-25T12:22:42;9.43;;;2.78;;
70320;SDS011;61127;55.826;37.046;2023-04-25T12:25:55;5.53;;;3.33;;
70320;SDS011;61127;55.826;37.046;2023-04-25T12:28:16;9.25;;;3.53;;
70320;SDS011;61127;55.826;37.046;2023-04-25T12:33:27;8.75;;;3.17;;
70320;SDS011;61127;55.826;37.046;2023-04-25T12:35:54;6.75;;;3.42;;
70320;SDS011;61127;55.826;37.046;2023-04-25T12:38:24;6.50;;;3.00;;
70320;SDS011;61127;55.826;37.046;2023-04-25T12:40:51;8.77;;;3.58;;
70320;SDS011;61127;55.826;37.046;2023-04-25T12:43:17;6.20;;;2.97;;
70320;SDS011;61127;55.826;37.046;2023-04-25T12:45:44;6.13;;;3.17;;
70320;SDS011;61127;55.826;37.046;2023-04-25T12:48:10;6.53;;;3.30;;
70320;SDS011;61127;55.826;37.046;2023-04-25T12:50:36;8.40;;;3.10;;
70320;SDS011;61127;55.826;37.046;2023-04-25T12:53:02;6.88;;;3.33;;
70320;SDS011;61127;55.826;37.046;2023-04-25T12:55:29;8.68;;;3.40;;
70320;SDS011;61127;55.826;37.046;2023-04-25T12:57:54;7.60;;;3.20;;
70320;SDS011;61127;55.826;37.046;2023-04-25T13:00:20;6.60;;;3.40;;
70320;SDS011;61127;55.826;37.046;2023-04-25T13:02:46;5.57;;;3.35;;
70320;SDS011;61127;55.826;37.046;2023-04-25T13:05:13;7.28;;;3.30;;
70320;SDS011;61127;55.826;37.046;2023-04-25T13:07:38;8.70;;;3.70;;
70320;SDS011;61127;55.826;37.046;2023-04-25T13:10:05;6.93;;;3.75;;
70320;SDS011;61127;55.826;37.046;2023-04-25T13:12:31;4.90;;;3.40;;
70320;SDS011;61127;55.826;37.046;2023-04-25T13:14:57;4.60;;;3.17;;
70320;SDS011;61127;55.826;37.046;2023-04-25T13:17:23;10.60;;;3.20;;
70320;SDS011;61127;55.826;37.046;2023-04-25T13:19:49;9.70;;;3.08;;
70320;SDS011;61127;55.826;37.046;2023-04-25T13:22:16;6.37;;;2.90;;
70320;SDS011;61127;55.826;37.046;2023-04-25T13:24:46;7.38;;;3.28;;
70320;SDS011;61127;55.826;37.046;2023-04-25T13:27:12;7.10;;;3.50;;
70320;SDS011;61127;55.826;37.046;2023-04-25T13:29:38;7.72;;;3.20;;
70320;SDS011;61127;55.826;37.046;2023-04-25T13:32:07;9.30;;;3.00;;
70320;SDS011;61127;55.826;37.046;2023-04-25T13:34:34;7.23;;;2.50;;
70320;SDS011;61127;55.826;37.046;2023-04-25T13:37:00;6.95;;;2.85;;
70320;SDS011;61127;55.826;37.046;2023-04-25T13:39:27;12.32;;;2.88;;
70320;SDS011;61127;55.826;37.046;2023-04-25T13:41:52;6.93;;;2.50;;
70320;SDS011;61127;55.826;37.046;2023-04-25T13:44:19;7.80;;;2.80;;
70320;SDS011;61127;55.826;37.046;2023-04-25T13:46:45;8.10;;;2.83;;
70320;SDS011;61127;55.826;37.046;2023-04-25T13:49:11;6.97;;;2.80;;
70320;SDS011;61127;55.826;37.046;2023-04-25T13:51:37;5.30;;;2.50;;
70320;SDS011;61127;55.826;37.046;2023-04-25T13:54:03;6.03;;;2.33;;
70320;SDS011;61127;55.826;37.046;2023-04-25T13:56:29;6.03;;;2.95;;
70320;SDS011;61127;55.826;37.046;2023-04-25T13:58:55;10.25;;;3.15;;
70320;SDS011;61127;55.826;37.046;2023-04-25T14:01:22;7.13;;;2.40;;
70320;SDS011;61127;55.826;37.046;2023-04-25T14:03:48;6.68;;;2.80;;
70320;SDS011;61127;55.826;37.046;2023-04-25T14:06:14;8.52;;;2.83;;
70320;SDS011;61127;55.826;37.046;2023-04-25T14:08:46;4.32;;;2.50;;
70320;SDS011;61127;55.826;37.046;2023-04-25T14:11:12;6.30;;;2.40;;
70320;SDS011;61127;55.826;37.046;2023-04-25T14:13:38;8.75;;;2.50;;
70320;SDS011;61127;55.826;37.046;2023-04-25T14:16:04;5.97;;;2.40;;
70320;SDS011;61127;55.826;37.046;2023-04-25T14:18:31;8.97;;;2.60;;
70320;SDS011;61127;55.826;37.046;2023-04-25T14:20:57;6.80;;;2.70;;
70320;SDS011;61127;55.826;37.046;2023-04-25T14:23:23;7.03;;;2.88;;
70320;SDS011;61127;55.826;37.046;2023-04-25T14:25:49;5.45;;;2.30;;
70320;SDS011;61127;55.826;37.046;2023-04-25T14:28:15;8.47;;;2.90;;
70320;SDS011;61127;55.826;37.046;2023-04-25T14:30:41;6.40;;;2.67;;
70320;SDS011;61127;55.826;37.046;2023-04-25T14:33:06;7.32;;;2.83;;
70320;SDS011;61127;55.826;37.046;2023-04-25T14:35:32;5.10;;;2.30;;
70320;SDS011;61127;55.826;37.046;2023-04-25T14:37:58;5.57;;;2.55;;
70320;SDS011;61127;55.826;37.046;2023-04-25T14:40:25;7.00;;;2.53;;
70320;SDS011;61127;55.826;37.046;2023-04-25T14:42:51;5.95;;;2.63;;
70320;SDS011;61127;55.826;37.046;2023-04-25T14:45:17;6.18;;;2.30;;
70320;SDS011;61127;55.826;37.046;2023-04-25T14:47:43;8.13;;;2.50;;
70320;SDS011;61127;55.826;37.046;2023-04-25T14:50:09;6.73;;;2.60;;